Terminal Aerodrome Forecast
Issued by NWS Missoula, MT

Home | Current Version | Previous Version | Text Only | Print | Product List | Glossary On
Versions: 1 2 3 4 5 6 7 8 9 10 11 12 13 14 15 16 17 18 19 20 21 22 23 24 25 26 27 28
000
FTUS45 KMSO 252340
TAFBTM
TAF
KBTM 252340Z 2600/2624 34008KT 3/4SM -SN BR VV012
      TEMPO 2600/2604 2SM -SN BR BKN008 OVC015
     FM260800 VRB05KT 5SM BR VCSH BKN020 OVC050=

USA.gov is the U.S. government's official web portal to all federal, state and local government web resources and services.